North Windham, CT (06256)

9:00 PM EDT on September 02, 2014 (GMT -0400)
"Fox Den" Rt6 Chaplin | Change Station
CLOSE
Current Station
Personal Weather Station
Location: Chaplin, CT
Elevation: 584 ft
Nearby Weather Stations

Elev 584 ft 41.77 °N, 72.11 °W | Updated 6 minutes ago

Clear
Clear
75.4 °F
Feels Like 74 °F
N
0.0
Wind Variable Wind from SSW

Today
High -- | Low -- °F
--% Chance of Precip.
Yesterday
High -- | Low -- °F
Precip. -- in
6:15 AM 7:20 PM
First Quarter, 56% visible
Pressure 29.80 in
Visibility 10.0 miles
Clouds Clear
Heat Index 74 °F
Dew Point 74 °F
Humidity 94%
Rainfall 0.00 in
Snow Depth Not available.
UV 0 out of 12
Pollen 7.30 out of 12
Ozone Moderate
Flu Activity Not available.
METAR KIJD 030052Z AUTO 20006KT 10SM CLR 27/22 A2980 RMK AO2 SLP090 T02670217

More Conditions Fewer Conditions

Pressure 29.80 in
Visibility 10.0 miles
Clouds Clear
Heat Index 74 °F
Dew Point 74 °F
Humidity 94%
Rainfall 0.00 in
Snow Depth Not available.
UV 0 out of 12
Pollen 7.30 out of 12
Ozone Moderate
Flu Activity Not available.
METAR KIJD 030052Z AUTO 20006KT 10SM CLR 27/22 A2980 RMK AO2 SLP090 T02670217

More Conditions Fewer Conditions

10-Day Weather Forecast

Almanac

Astronomy

Sep. 02, 2014 Rise Set
Actual Time 6:15 AM EDT 7:20 PM EDT
Civil Twilight 5:46 AM EDT 7:48 PM EDT
Nautical Twilight 5:12 AM EDT 8:22 PM EDT
Astronomical Twilight 4:37 AM EDT 8:58 PM EDT
Moon 2:02 PM EDT (9/2) No Moon Set
Length of Visible Light 14h 01m
Length of Day
13h 04m
Tomorrow will be 2m 42s shorter.
First Quarter, 56% of the Moon is Illuminated
Today
First Quarter
Sep 8
Full
Sep 15
Last Quarter
Sep 24
New
Oct 1
First Quarter

Today's Extremes

State Highs State Lows

Community

WunderPhotos

Upload Photos

1,749,826 photos uploaded!

Nearby

Air Quality

  Air Quality AQ Index Pollutant
Yesterday Good
OZONE
Current Moderate
OZONE
Tuesday Moderate
OZONE
Tuesday Moderate
PM2.5
Wednesday Good
OZONE
Wednesday Good
PM2.5

Snow Depth

Station Depth Elevation
No new snow has been reported.

Earthquake Activity

City Distance Mag. Time & Date
No recent earthquake activity has been reported nearby.
Minimum magnitude displayed is 2.5.

Coastal Water Temperatures

Place Temperature
New London, CT 73.0 °F
Newport, RI 72.0 °F
Quonset Point, RI 73.9 °F
Conimicut Light, RI 73.9 °F
Providence, RI 75.0 °F

Nearby Weather Stations